Time;durP1;ratioP1;P1;durP2;ratioP2;P2;SDS_P1;SDS_P2;PMS_P1;PMS_P2;Temp;Humidity;BMP_temperature;BMP_pressure;BME280_temperature;BME280_humidity;BME280_pressure;Samples;Min_cycle;Max_cycle;Signal;HPM_P1;HPM_P2
2022/09/07 00:02:46;;;;;;;16.25;5.68;;;;;;;;;;6299129;28;20048;-57
2022/09/07 00:05:49;;;;;;;13.90;5.45;;;;;;;;;;6298277;28;20079;-56
2022/09/07 00:08:49;;;;;;;12.52;5.70;;;;;;;;;;6297592;28;20478;-56
2022/09/07 00:11:50;;;;;;;13.70;5.95;;;;;;;;;;6296264;28;20044;-58
2022/09/07 00:14:50;;;;;;;12.93;5.43;;;;;;;;;;6298284;28;20044;-56
2022/09/07 00:17:51;;;;;;;12.90;5.43;;;;;;;;;;6294754;28;20055;-56
2022/09/07 00:21:04;;;;;;;15.25;5.82;;;;;;;;;;6297272;28;20040;-56
2022/09/07 00:24:05;;;;;;;14.82;5.47;;;;;;;;;;6300384;28;20158;-58
2022/09/07 00:27:05;;;;;;;14.45;5.38;;;;;;;;;;6293864;28;20475;-58
2022/09/07 00:30:06;;;;;;;14.45;6.07;;;;;;;;;;6300639;28;20150;-56
2022/09/07 00:33:07;;;;;;;15.02;5.50;;;;;;;;;;6298537;28;21115;-57
2022/09/07 00:36:08;;;;;;;13.83;5.30;;;;;;;;;;6297854;28;20131;-57
2022/09/07 00:39:08;;;;;;;11.38;5.15;;;;;;;;;;6299174;28;20495;-58
2022/09/07 00:42:09;;;;;;;16.05;5.75;;;;;;;;;;6297260;28;20056;-57
2022/09/07 00:45:16;;;;;;;16.58;5.68;;;;;;;;;;6297175;28;20036;-54
2022/09/07 00:48:18;;;;;;;16.50;6.18;;;;;;;;;;6291339;28;20049;-57
2022/09/07 00:51:33;;;;;;;15.38;6.03;;;;;;;;;;6289929;28;20063;-56
2022/09/07 00:54:47;;;;;;;21.35;7.47;;;;;;;;;;6298048;28;20070;-57
2022/09/07 00:57:51;;;;;;;16.88;6.00;;;;;;;;;;6300157;28;20052;-57
2022/09/07 01:00:54;;;;;;;13.25;6.10;;;;;;;;;;6298369;28;20055;-57
2022/09/07 01:03:57;;;;;;;15.32;5.75;;;;;;;;;;6296167;28;20070;-57
2022/09/07 01:06:59;;;;;;;20.73;5.95;;;;;;;;;;6297461;28;20535;-57
2022/09/07 01:10:00;;;;;;;16.57;5.47;;;;;;;;;;6293937;28;20392;-55
2022/09/07 01:13:01;;;;;;;14.83;5.30;;;;;;;;;;6299486;28;20709;-56
2022/09/07 01:16:37;;;;;;;11.88;5.03;;;;;;;;;;6298779;28;20297;-57
2022/09/07 01:20:01;;;;;;;14.48;5.43;;;;;;;;;;6250079;28;20236;-58
2022/09/07 01:23:19;;;;;;;13.80;5.82;;;;;;;;;;6291637;28;20486;-58
2022/09/07 01:26:59;;;;;;;11.13;5.20;;;;;;;;;;6294871;28;20511;-58
2022/09/07 01:30:02;;;;;;;14.10;5.53;;;;;;;;;;6297521;28;20149;-56
2022/09/07 01:33:27;;;;;;;12.95;5.82;;;;;;;;;;6292597;28;20072;-53
2022/09/07 01:36:35;;;;;;;14.95;7.03;;;;;;;;;;6312481;28;20059;-58
2022/09/07 01:39:46;;;;;;;14.93;6.00;;;;;;;;;;6315626;28;20558;-55
2022/09/07 01:43:01;;;;;;;15.43;6.70;;;;;;;;;;6304463;28;20371;-56
2022/09/07 01:46:07;;;;;;;15.82;5.60;;;;;;;;;;6307114;28;20046;-56
2022/09/07 01:49:18;;;;;;;17.35;6.60;;;;;;;;;;6313830;28;20059;-56
2022/09/07 01:52:30;;;;;;;14.90;6.45;;;;;;;;;;6302067;28;20563;-56
2022/09/07 01:55:37;;;;;;;16.25;7.05;;;;;;;;;;6299774;28;20138;-56
2022/09/07 01:58:46;;;;;;;15.07;6.28;;;;;;;;;;6316479;28;20554;-56
2022/09/07 02:01:54;;;;;;;13.52;6.10;;;;;;;;;;6314836;28;20051;-56
2022/09/07 02:05:17;;;;;;;16.58;6.35;;;;;;;;;;6296336;28;20044;-56
2022/09/07 02:08:27;;;;;;;20.08;6.72;;;;;;;;;;6294977;28;20156;-56
2022/09/07 02:11:36;;;;;;;18.13;7.50;;;;;;;;;;6293345;28;20086;-57
2022/09/07 02:14:40;;;;;;;15.48;6.35;;;;;;;;;;6293158;28;20048;-58
2022/09/07 02:17:43;;;;;;;14.77;6.28;;;;;;;;;;6294115;28;20139;-57
2022/09/07 02:20:48;;;;;;;14.98;6.03;;;;;;;;;;6296127;28;20052;-58
2022/09/07 02:24:24;;;;;;;17.55;6.38;;;;;;;;;;6292178;28;20094;-58
2022/09/07 02:27:49;;;;;;;12.35;5.85;;;;;;;;;;6283997;28;20048;-54
2022/09/07 02:30:50;;;;;;;21.77;6.25;;;;;;;;;;6298225;28;20131;-55
2022/09/07 02:33:51;;;;;;;22.20;6.63;;;;;;;;;;6294944;28;22208;-58
2022/09/07 02:36:53;;;;;;;17.40;6.28;;;;;;;;;;6295540;28;20040;-58
2022/09/07 02:39:53;;;;;;;22.25;7.15;;;;;;;;;;6299181;28;20109;-58
2022/09/07 02:42:54;;;;;;;13.23;6.15;;;;;;;;;;6298805;28;20040;-58
2022/09/07 02:46:13;;;;;;;14.55;6.05;;;;;;;;;;6300807;28;20089;-57
2022/09/07 02:49:48;;;;;;;14.75;6.30;;;;;;;;;;6297485;28;20143;-57
2022/09/07 02:53:08;;;;;;;22.80;7.28;;;;;;;;;;6301286;28;20135;-58
2022/09/07 02:56:26;;;;;;;17.27;6.70;;;;;;;;;;6299911;28;20067;-59
2022/09/07 02:59:44;;;;;;;13.88;6.57;;;;;;;;;;6297416;28;20120;-58
2022/09/07 03:03:03;;;;;;;19.77;6.22;;;;;;;;;;6316762;28;20133;-56
2022/09/07 03:06:13;;;;;;;15.88;6.82;;;;;;;;;;6300182;28;20044;-57
2022/09/07 03:09:19;;;;;;;18.00;6.55;;;;;;;;;;6302047;28;20062;-58
2022/09/07 03:12:20;;;;;;;13.13;6.40;;;;;;;;;;6299690;28;20055;-57
2022/09/07 03:15:24;;;;;;;13.30;5.20;;;;;;;;;;6299778;28;20047;-58
2022/09/07 03:18:26;;;;;;;15.57;6.78;;;;;;;;;;6299895;28;20052;-57
2022/09/07 03:21:27;;;;;;;17.30;6.85;;;;;;;;;;6298923;28;20159;-58
2022/09/07 03:24:27;;;;;;;18.95;6.60;;;;;;;;;;6295992;28;20048;-58
2022/09/07 03:27:28;;;;;;;13.88;5.90;;;;;;;;;;6300266;28;20058;-57
2022/09/07 03:30:28;;;;;;;16.50;6.00;;;;;;;;;;6301724;28;20048;-55
2022/09/07 03:33:29;;;;;;;19.23;6.13;;;;;;;;;;6299360;28;20040;-58
2022/09/07 03:36:30;;;;;;;15.70;5.90;;;;;;;;;;6300553;28;20050;-58
2022/09/07 03:39:31;;;;;;;16.20;6.67;;;;;;;;;;6300027;28;20457;-58
2022/09/07 03:42:31;;;;;;;14.13;5.97;;;;;;;;;;6298672;28;20041;-56
2022/09/07 03:45:32;;;;;;;15.70;6.35;;;;;;;;;;6298581;28;20376;-57
2022/09/07 03:48:34;;;;;;;14.02;5.95;;;;;;;;;;6298511;28;20384;-58
2022/09/07 03:51:34;;;;;;;17.60;6.40;;;;;;;;;;6299808;28;20193;-57
2022/09/07 03:54:35;;;;;;;18.15;7.65;;;;;;;;;;6298330;28;20044;-58
2022/09/07 03:57:35;;;;;;;15.90;6.32;;;;;;;;;;6301979;28;20044;-58
2022/09/07 04:00:39;;;;;;;19.58;6.82;;;;;;;;;;6298462;28;20581;-57
2022/09/07 04:03:41;;;;;;;19.40;6.88;;;;;;;;;;6310140;28;20086;-58
2022/09/07 04:06:42;;;;;;;17.90;6.23;;;;;;;;;;6300891;28;20398;-57
2022/09/07 04:09:42;;;;;;;16.98;6.85;;;;;;;;;;6299199;28;20052;-56
2022/09/07 04:12:43;;;;;;;20.08;6.53;;;;;;;;;;6297590;28;20119;-56
2022/09/07 04:15:43;;;;;;;17.75;7.15;;;;;;;;;;6297649;28;20550;-61
2022/09/07 04:18:44;;;;;;;19.02;7.35;;;;;;;;;;6300870;28;20085;-60
2022/09/07 04:21:45;;;;;;;18.57;6.90;;;;;;;;;;6308088;28;20036;-55
2022/09/07 04:24:46;;;;;;;21.52;7.95;;;;;;;;;;6315673;28;20566;-58
2022/09/07 04:27:47;;;;;;;19.10;7.30;;;;;;;;;;6298070;28;20044;-58
2022/09/07 04:30:47;;;;;;;22.90;7.68;;;;;;;;;;6302901;28;20040;-55
2022/09/07 04:33:49;;;;;;;21.73;6.82;;;;;;;;;;6307876;28;20131;-53
2022/09/07 04:36:49;;;;;;;26.80;9.05;;;;;;;;;;6305039;28;20052;-56
2022/09/07 04:39:50;;;;;;;22.88;7.80;;;;;;;;;;6287397;28;20060;-55
2022/09/07 04:42:51;;;;;;;34.33;9.30;;;;;;;;;;6270685;28;20041;-56
2022/09/07 04:45:51;;;;;;;38.95;7.93;;;;;;;;;;6281321;28;20476;-57
2022/09/07 04:49:00;;;;;;;32.63;7.97;;;;;;;;;;6270640;28;20041;-57
2022/09/07 04:52:01;;;;;;;25.75;8.27;;;;;;;;;;6288359;28;20190;-57
2022/09/07 04:55:04;;;;;;;24.13;7.55;;;;;;;;;;6277855;28;20048;-55
2022/09/07 04:58:04;;;;;;;23.40;8.10;;;;;;;;;;6273455;28;20139;-58
2022/09/07 05:01:05;;;;;;;23.98;7.68;;;;;;;;;;6275218;28;20060;-56
2022/09/07 05:04:06;;;;;;;27.47;8.90;;;;;;;;;;6280205;28;20469;-57
2022/09/07 05:07:06;;;;;;;21.80;8.15;;;;;;;;;;6267912;28;20285;-56
2022/09/07 05:10:07;;;;;;;25.75;8.90;;;;;;;;;;6273879;28;20080;-56
2022/09/07 05:13:08;;;;;;;28.00;8.77;;;;;;;;;;6273010;28;20202;-53
2022/09/07 05:16:17;;;;;;;26.35;10.23;;;;;;;;;;6268408;28;20084;-56
2022/09/07 05:19:18;;;;;;;24.17;9.23;;;;;;;;;;6274991;28;20060;-57
2022/09/07 05:22:19;;;;;;;18.23;8.68;;;;;;;;;;6267859;28;20051;-56
2022/09/07 05:25:19;;;;;;;22.25;8.57;;;;;;;;;;6274514;28;20049;-55
2022/09/07 05:28:20;;;;;;;27.50;9.80;;;;;;;;;;6274964;28;20049;-57
2022/09/07 05:31:22;;;;;;;27.75;9.40;;;;;;;;;;6269707;28;20818;-55
2022/09/07 05:34:23;;;;;;;;;;;;;;;;;;6271199;28;20045;-58
2022/09/07 05:37:23;;;;;;;30.85;9.10;;;;;;;;;;6276141;28;20003;-57
2022/09/07 05:40:24;;;;;;;20.73;9.15;;;;;;;;;;6277225;28;20144;-56
2022/09/07 05:43:25;;;;;;;28.90;8.98;;;;;;;;;;6281586;28;20041;-56
2022/09/07 05:46:25;;;;;;;30.05;9.50;;;;;;;;;;6288411;28;20131;-56
2022/09/07 05:49:26;;;;;;;27.60;10.52;;;;;;;;;;6277510;28;20045;-56
2022/09/07 05:52:27;;;;;;;33.75;10.48;;;;;;;;;;6272735;28;20080;-57
2022/09/07 05:55:30;;;;;;;22.90;10.00;;;;;;;;;;6271196;28;20049;-56
2022/09/07 05:58:32;;;;;;;28.70;10.07;;;;;;;;;;6267456;28;20135;-55
2022/09/07 06:01:34;;;;;;;33.90;10.38;;;;;;;;;;6267140;28;20060;-56
2022/09/07 06:04:35;;;;;;;29.30;9.68;;;;;;;;;;6289293;28;20075;-56
2022/09/07 06:07:35;;;;;;;27.08;10.20;;;;;;;;;;6291817;28;20044;-56
2022/09/07 06:10:36;;;;;;;30.48;10.32;;;;;;;;;;6274418;28;20403;-57
2022/09/07 06:13:37;;;;;;;26.15;10.27;;;;;;;;;;6271193;28;20049;-61
2022/09/07 06:16:37;;;;;;;31.02;10.43;;;;;;;;;;6274773;28;20067;-57
2022/09/07 06:19:38;;;;;;;34.60;10.38;;;;;;;;;;6281918;28;20688;-55
2022/09/07 06:22:39;;;;;;;35.13;10.00;;;;;;;;;;6280588;28;20451;-55
2022/09/07 06:25:47;;;;;;;24.00;9.30;;;;;;;;;;6275484;28;20064;-56
2022/09/07 06:28:48;;;;;;;26.75;9.50;;;;;;;;;;6275523;28;20075;-56
2022/09/07 06:31:48;;;;;;;26.25;10.20;;;;;;;;;;6275389;28;20410;-56
2022/09/07 06:34:49;;;;;;;26.73;11.02;;;;;;;;;;6275213;28;20037;-52
2022/09/07 06:37:49;;;;;;;30.58;9.98;;;;;;;;;;6280399;28;20514;-55
2022/09/07 06:40:50;;;;;;;24.65;9.70;;;;;;;;;;6298519;28;20190;-52
2022/09/07 06:43:53;;;;;;;28.95;10.50;;;;;;;;;;6297109;28;20040;-54
2022/09/07 06:46:53;;;;;;;25.45;10.25;;;;;;;;;;6299612;28;20040;-56
2022/09/07 06:49:54;;;;;;;36.13;10.85;;;;;;;;;;6298910;28;20089;-55
2022/09/07 06:52:54;;;;;;;27.88;9.55;;;;;;;;;;6294246;28;20130;-55
2022/09/07 06:55:55;;;;;;;29.42;11.30;;;;;;;;;;6299252;28;20040;-68
2022/09/07 06:58:57;;;;;;;29.92;10.48;;;;;;;;;;6301954;28;20098;-55
2022/09/07 07:01:57;;;;;;;31.73;11.52;;;;;;;;;;6304679;28;20554;-56
2022/09/07 07:04:58;;;;;;;27.40;10.05;;;;;;;;;;6297779;28;20143;-53
2022/09/07 07:07:58;;;;;;;28.48;11.32;;;;;;;;;;6298668;28;20048;-55
2022/09/07 07:11:04;;;;;;;28.88;9.30;;;;;;;;;;6297899;28;20066;-56
2022/09/07 07:14:05;;;;;;;30.15;10.30;;;;;;;;;;6300313;28;20101;-54
2022/09/07 07:17:06;;;;;;;33.25;10.65;;;;;;;;;;6298998;28;20170;-54
2022/09/07 07:20:06;;;;;;;27.95;10.10;;;;;;;;;;6298485;28;20064;-55
2022/09/07 07:23:07;;;;;;;26.17;10.07;;;;;;;;;;6296916;28;20045;-54
2022/09/07 07:26:16;;;;;;;24.08;10.63;;;;;;;;;;6297751;28;20040;-56
2022/09/07 07:29:17;;;;;;;27.75;10.25;;;;;;;;;;6300535;28;20044;-55
2022/09/07 07:32:18;;;;;;;24.48;9.95;;;;;;;;;;6297774;28;20763;-55
2022/09/07 07:35:18;;;;;;;27.65;9.80;;;;;;;;;;6296522;28;20056;-56
2022/09/07 07:38:19;;;;;;;23.80;9.85;;;;;;;;;;6299227;28;20052;-53
2022/09/07 07:41:22;;;;;;;25.40;9.60;;;;;;;;;;6295934;28;20139;-56
2022/09/07 07:44:23;;;;;;;23.70;9.85;;;;;;;;;;6304743;28;20044;-56
2022/09/07 07:47:23;;;;;;;28.55;9.70;;;;;;;;;;6313553;28;20048;-56
2022/09/07 07:50:24;;;;;;;23.27;10.02;;;;;;;;;;6314441;28;20037;-54
2022/09/07 07:53:26;;;;;;;27.20;10.23;;;;;;;;;;6303216;28;20044;-55
2022/09/07 07:56:26;;;;;;;26.50;10.35;;;;;;;;;;6317570;28;20064;-57
2022/09/07 07:59:27;;;;;;;25.50;11.13;;;;;;;;;;6319912;28;20044;-57
2022/09/07 08:02:27;;;;;;;34.13;10.60;;;;;;;;;;6304174;28;20086;-53
2022/09/07 08:05:28;;;;;;;25.65;11.00;;;;;;;;;;6296538;28;20082;-57
2022/09/07 08:08:29;;;;;;;24.75;10.55;;;;;;;;;;6298968;28;20044;-57
2022/09/07 08:11:30;;;;;;;24.10;10.52;;;;;;;;;;6296634;28;20052;-57
2022/09/07 08:14:31;;;;;;;25.27;10.47;;;;;;;;;;6296633;28;20082;-56
2022/09/07 08:17:31;;;;;;;29.33;11.43;;;;;;;;;;6297192;28;20172;-53
2022/09/07 08:20:32;;;;;;;25.65;10.20;;;;;;;;;;6297417;28;20052;-57
2022/09/07 08:23:33;;;;;;;27.35;10.25;;;;;;;;;;6300040;28;20080;-57
2022/09/07 08:26:34;;;;;;;26.17;10.37;;;;;;;;;;6295441;28;20380;-56
2022/09/07 08:29:35;;;;;;;24.10;10.90;;;;;;;;;;6297649;28;20254;-58
2022/09/07 08:32:35;;;;;;;28.63;10.93;;;;;;;;;;6296353;28;20335;-56
2022/09/07 08:35:36;;;;;;;28.40;10.82;;;;;;;;;;6293448;28;20056;-57
2022/09/07 08:38:37;;;;;;;21.50;9.48;;;;;;;;;;6295839;28;20048;-58
2022/09/07 08:42:05;;;;;;;23.08;10.18;;;;;;;;;;6299604;28;20047;-56
2022/09/07 08:45:39;;;;;;;23.92;10.00;;;;;;;;;;6297284;28;20108;-60
2022/09/07 08:48:40;;;;;;;20.35;9.40;;;;;;;;;;6300708;28;20479;-58
2022/09/07 08:51:51;;;;;;;20.08;8.90;;;;;;;;;;6316782;28;20058;-58
2022/09/07 08:55:02;;;;;;;21.83;9.35;;;;;;;;;;6314897;28;20140;-57
2022/09/07 08:58:10;;;;;;;19.13;8.40;;;;;;;;;;6313127;28;20094;-59
2022/09/07 09:01:12;;;;;;;19.02;8.75;;;;;;;;;;6314466;28;20131;-58
2022/09/07 09:04:19;;;;;;;;;;;;;;;;;;6305041;28;20099;-57
2022/09/07 09:07:27;;;;;;;20.40;9.00;;;;;;;;;;6291897;28;19981;-57
2022/09/07 09:10:39;;;;;;;22.08;8.93;;;;;;;;;;6291977;28;20055;-57
2022/09/07 09:13:44;;;;;;;21.63;9.55;;;;;;;;;;6293241;28;20459;-54
2022/09/07 09:16:49;;;;;;;19.63;9.43;;;;;;;;;;6291582;28;20055;-56
2022/09/07 09:20:11;;;;;;;18.50;9.18;;;;;;;;;;6306632;28;20508;-55
2022/09/07 09:23:14;;;;;;;22.13;9.88;;;;;;;;;;6311093;28;20123;-59
2022/09/07 09:26:27;;;;;;;22.15;10.18;;;;;;;;;;6291772;28;20102;-58
2022/09/07 09:29:27;;;;;;;20.42;9.07;;;;;;;;;;6297911;28;20048;-56
2022/09/07 09:32:32;;;;;;;22.30;9.43;;;;;;;;;;6297551;28;20051;-54
2022/09/07 09:35:37;;;;;;;24.13;10.23;;;;;;;;;;6297853;28;20457;-57
2022/09/07 09:38:39;;;;;;;26.27;10.85;;;;;;;;;;6285631;28;20144;-58
2022/09/07 09:41:40;;;;;;;23.48;10.77;;;;;;;;;;6268488;28;20080;-56
2022/09/07 09:44:42;;;;;;;19.15;10.15;;;;;;;;;;6270558;28;20055;-57
2022/09/07 09:47:48;;;;;;;23.92;10.52;;;;;;;;;;6270034;28;20049;-58
2022/09/07 09:50:51;;;;;;;28.50;10.38;;;;;;;;;;6275129;28;20056;-58
2022/09/07 09:53:55;;;;;;;21.98;10.05;;;;;;;;;;6275110;28;20482;-59
2022/09/07 09:56:56;;;;;;;23.63;10.35;;;;;;;;;;6274323;28;20041;-53
2022/09/07 10:00:00;;;;;;;23.20;10.03;;;;;;;;;;6276739;28;20048;-58
2022/09/07 10:03:10;;;;;;;24.63;10.85;;;;;;;;;;6276620;28;20515;-56
2022/09/07 10:06:15;;;;;;;23.55;10.02;;;;;;;;;;6276403;28;20047;-58
2022/09/07 10:09:19;;;;;;;25.13;10.52;;;;;;;;;;6274412;28;20605;-59
2022/09/07 10:12:40;;;;;;;23.55;10.70;;;;;;;;;;6273774;28;20501;-57
2022/09/07 10:15:41;;;;;;;26.60;11.20;;;;;;;;;;6275429;28;20033;-57
2022/09/07 10:18:57;;;;;;;26.00;11.03;;;;;;;;;;6274306;28;20072;-57
2022/09/07 10:22:00;;;;;;;22.67;10.93;;;;;;;;;;6275495;28;20074;-58
2022/09/07 10:25:23;;;;;;;19.48;10.25;;;;;;;;;;6275619;28;20449;-56
2022/09/07 10:28:23;;;;;;;21.73;11.02;;;;;;;;;;6273570;28;20129;-57
2022/09/07 10:31:30;;;;;;;22.33;10.73;;;;;;;;;;6285271;28;20048;-59
2022/09/07 10:34:49;;;;;;;22.35;10.75;;;;;;;;;;6296045;28;20566;-56
2022/09/07 10:38:03;;;;;;;20.73;11.15;;;;;;;;;;6289604;28;20048;-57
2022/09/07 10:41:08;;;;;;;24.77;10.82;;;;;;;;;;6298281;28;20147;-57
2022/09/07 10:44:34;;;;;;;23.42;10.70;;;;;;;;;;6300260;28;20048;-59
2022/09/07 10:48:02;;;;;;;24.08;10.68;;;;;;;;;;6298146;28;20041;-58
2022/09/07 10:51:10;;;;;;;20.08;10.80;;;;;;;;;;6298501;28;20048;-54
2022/09/07 10:54:17;;;;;;;23.25;11.32;;;;;;;;;;6297462;28;20292;-58
2022/09/07 10:57:41;;;;;;;23.75;11.23;;;;;;;;;;6299931;28;20059;-59
2022/09/07 11:01:02;;;;;;;19.05;10.63;;;;;;;;;;6295206;28;20546;-60
2022/09/07 11:04:09;;;;;;;25.15;10.65;;;;;;;;;;6298628;28;20070;-58
2022/09/07 11:07:25;;;;;;;22.58;11.40;;;;;;;;;;6298557;28;20640;-58
2022/09/07 11:10:44;;;;;;;20.45;10.80;;;;;;;;;;6301268;28;20466;-58
2022/09/07 11:13:49;;;;;;;24.83;10.30;;;;;;;;;;6299612;28;20068;-59
2022/09/07 11:17:11;;;;;;;20.65;10.30;;;;;;;;;;6300485;28;20473;-58
2022/09/07 11:20:24;;;;;;;23.55;10.93;;;;;;;;;;6297765;28;20072;-59
2022/09/07 11:23:27;;;;;;;21.70;9.63;;;;;;;;;;6300852;28;20047;-58
2022/09/07 11:26:49;;;;;;;20.30;10.55;;;;;;;;;;6310255;28;20112;-59
2022/09/07 11:29:57;;;;;;;17.27;9.38;;;;;;;;;;6312735;28;20044;-59
2022/09/07 11:33:23;;;;;;;17.60;9.68;;;;;;;;;;6313746;28;20149;-58
2022/09/07 11:36:25;;;;;;;22.90;10.05;;;;;;;;;;6294224;28;20062;-59
2022/09/07 11:39:34;;;;;;;18.63;10.68;;;;;;;;;;6293537;28;20113;-59
2022/09/07 11:42:48;;;;;;;23.92;11.07;;;;;;;;;;6305458;28;20044;-59
2022/09/07 11:46:06;;;;;;;19.50;11.38;;;;;;;;;;6296427;28;20071;-59
2022/09/07 11:49:18;;;;;;;18.58;10.23;;;;;;;;;;6297295;28;20052;-58
2022/09/07 11:52:37;;;;;;;;;;;;;;;;;;6297012;28;20048;-58
2022/09/07 11:55:43;;;;;;;22.02;10.82;;;;;;;;;;6297359;28;19931;-60
2022/09/07 11:58:59;;;;;;;22.05;10.35;;;;;;;;;;6297116;28;20578;-61
2022/09/07 12:02:12;;;;;;;19.25;10.40;;;;;;;;;;6299498;28;20057;-60
2022/09/07 12:05:19;;;;;;;22.95;10.43;;;;;;;;;;6298486;28;20495;-59
2022/09/07 12:08:31;;;;;;;19.98;10.68;;;;;;;;;;6295779;28;20487;-59
2022/09/07 12:12:04;;;;;;;21.10;9.75;;;;;;;;;;6297096;28;20136;-57
2022/09/07 12:15:21;;;;;;;20.88;10.82;;;;;;;;;;6288909;28;20055;-59
2022/09/07 12:18:40;;;;;;;22.08;10.73;;;;;;;;;;6300061;28;20135;-59
2022/09/07 12:21:51;;;;;;;20.30;10.77;;;;;;;;;;6299304;28;20570;-59
2022/09/07 12:24:53;;;;;;;22.17;10.90;;;;;;;;;;6299310;28;20067;-58
2022/09/07 12:27:54;;;;;;;26.20;10.95;;;;;;;;;;6296585;28;20052;-58
2022/09/07 12:30:58;;;;;;;20.33;10.13;;;;;;;;;;6296914;28;20051;-59
2022/09/07 12:34:30;;;;;;;21.60;10.75;;;;;;;;;;6299337;28;20121;-57
2022/09/07 12:37:35;;;;;;;20.80;10.52;;;;;;;;;;6295224;28;20507;-58
2022/09/07 12:40:36;;;;;;;18.92;10.23;;;;;;;;;;6298377;28;20542;-58
2022/09/07 12:43:42;;;;;;;21.50;10.60;;;;;;;;;;6299403;28;20039;-58
2022/09/07 12:46:45;;;;;;;18.40;10.68;;;;;;;;;;6296068;28;20052;-58
2022/09/07 12:50:15;;;;;;;21.80;9.88;;;;;;;;;;6298918;28;20048;-58
2022/09/07 12:53:28;;;;;;;21.05;10.65;;;;;;;;;;6299571;28;20055;-58
2022/09/07 12:56:56;;;;;;;21.98;10.73;;;;;;;;;;6301121;28;20127;-58
2022/09/07 13:00:14;;;;;;;19.48;10.25;;;;;;;;;;6299351;28;20046;-58
2022/09/07 13:03:41;;;;;;;20.23;10.20;;;;;;;;;;6297550;28;21131;-59
2022/09/07 13:07:16;;;;;;;25.13;10.65;;;;;;;;;;6299356;28;20052;-59
2022/09/07 13:10:29;;;;;;;15.73;9.73;;;;;;;;;;6299791;28;20125;-57
2022/09/07 13:13:31;;;;;;;21.30;10.15;;;;;;;;;;6298554;28;20143;-58
2022/09/07 13:16:33;;;;;;;;;;;;;;;;;;6295479;28;20127;-59
2022/09/07 13:19:49;;;;;;;21.17;10.82;;;;;;;;;;6297552;28;19927;-58
2022/09/07 13:22:49;;;;;;;18.80;9.90;;;;;;;;;;6300671;28;20139;-59
2022/09/07 13:25:53;;;;;;;21.10;9.70;;;;;;;;;;6299798;28;20050;-59
2022/09/07 13:28:57;;;;;;;18.33;10.20;;;;;;;;;;6297248;28;20830;-58
2022/09/07 13:32:24;;;;;;;18.98;9.88;;;;;;;;;;6300936;28;20637;-58
2022/09/07 13:35:27;;;;;;;18.83;9.98;;;;;;;;;;6297337;28;20135;-59
2022/09/07 13:38:31;;;;;;;16.75;9.80;;;;;;;;;;6284346;28;20056;-59
2022/09/07 13:41:37;;;;;;;17.30;9.98;;;;;;;;;;6269415;28;20155;-57
2022/09/07 13:44:37;;;;;;;19.40;9.88;;;;;;;;;;6268121;28;20099;-59
2022/09/07 13:47:42;;;;;;;19.63;10.60;;;;;;;;;;6270399;28;20498;-58
2022/09/07 13:51:02;;;;;;;18.13;10.10;;;;;;;;;;6271904;28;20462;-59
2022/09/07 13:54:22;;;;;;;18.50;10.23;;;;;;;;;;6271538;28;20118;-59
2022/09/07 13:57:52;;;;;;;17.60;9.93;;;;;;;;;;6272882;28;20041;-58
2022/09/07 14:00:59;;;;;;;21.42;10.82;;;;;;;;;;6272787;28;20048;-59
2022/09/07 14:04:06;;;;;;;18.67;10.50;;;;;;;;;;6270265;28;20101;-59
2022/09/07 14:07:15;;;;;;;16.30;10.13;;;;;;;;;;6270254;28;20581;-60
2022/09/07 14:10:20;;;;;;;17.77;9.52;;;;;;;;;;6269187;28;20056;-60
2022/09/07 14:13:20;;;;;;;24.25;11.00;;;;;;;;;;6261343;28;20052;-55
2022/09/07 14:16:21;;;;;;;15.70;9.50;;;;;;;;;;6266910;28;20056;-56
2022/09/07 14:19:32;;;;;;;17.83;10.40;;;;;;;;;;6267342;28;20059;-58
2022/09/07 14:22:34;;;;;;;19.17;9.73;;;;;;;;;;6265429;28;20067;-58
2022/09/07 14:25:34;;;;;;;16.75;9.80;;;;;;;;;;6263903;28;20073;-58
2022/09/07 14:28:37;;;;;;;15.60;10.07;;;;;;;;;;6266576;28;20053;-58
2022/09/07 14:31:38;;;;;;;15.90;9.93;;;;;;;;;;6265708;28;20080;-58
2022/09/07 14:34:38;;;;;;;23.80;10.17;;;;;;;;;;6260824;28;20048;-57
2022/09/07 14:37:40;;;;;;;17.03;10.30;;;;;;;;;;6276506;28;20261;-58
2022/09/07 14:40:40;;;;;;;23.73;10.98;;;;;;;;;;6306031;28;20061;-58
2022/09/07 14:43:56;;;;;;;18.10;10.23;;;;;;;;;;6304190;28;20135;-54
2022/09/07 14:47:00;;;;;;;19.95;10.18;;;;;;;;;;6306220;28;20059;-56
2022/09/07 14:50:04;;;;;;;19.50;10.43;;;;;;;;;;6308589;28;20046;-56
2022/09/07 14:53:10;;;;;;;15.88;9.35;;;;;;;;;;6309391;28;20146;-59
2022/09/07 14:56:18;;;;;;;18.40;10.52;;;;;;;;;;6312470;28;20449;-59
2022/09/07 14:59:46;;;;;;;18.92;9.73;;;;;;;;;;6320484;28;20138;-61
2022/09/07 15:02:47;;;;;;;19.25;10.18;;;;;;;;;;6321916;28;20134;-60
2022/09/07 15:05:47;;;;;;;16.00;9.80;;;;;;;;;;6311836;28;20075;-60
2022/09/07 15:08:48;;;;;;;20.27;10.10;;;;;;;;;;6309002;28;21147;-60
2022/09/07 15:11:49;;;;;;;15.77;9.77;;;;;;;;;;6309839;28;20048;-59
2022/09/07 15:14:50;;;;;;;18.13;10.30;;;;;;;;;;6315380;28;20097;-58
2022/09/07 15:17:51;;;;;;;18.53;10.23;;;;;;;;;;6315836;28;20065;-58
2022/09/07 15:20:52;;;;;;;23.52;10.75;;;;;;;;;;6317576;28;20424;-58
2022/09/07 15:23:54;;;;;;;20.33;10.37;;;;;;;;;;6312278;28;20056;-58
2022/09/07 15:26:55;;;;;;;19.00;10.35;;;;;;;;;;6312393;28;20100;-58
2022/09/07 15:29:55;;;;;;;17.10;10.33;;;;;;;;;;6311876;28;20040;-58
2022/09/07 15:32:56;;;;;;;21.40;11.13;;;;;;;;;;6319042;28;20542;-59
2022/09/07 15:35:57;;;;;;;25.70;10.82;;;;;;;;;;6315437;28;20054;-56
2022/09/07 15:38:58;;;;;;;21.60;10.63;;;;;;;;;;6306012;28;20052;-54
2022/09/07 15:41:58;;;;;;;17.77;10.87;;;;;;;;;;6299548;28;20427;-58
2022/09/07 15:44:59;;;;;;;24.67;10.97;;;;;;;;;;6292926;28;20052;-57
2022/09/07 15:48:00;;;;;;;20.13;10.47;;;;;;;;;;6294596;28;20558;-56
2022/09/07 15:51:04;;;;;;;18.90;11.43;;;;;;;;;;6298014;28;20403;-57
2022/09/07 15:54:04;;;;;;;18.88;10.52;;;;;;;;;;6300420;28;20048;-58
2022/09/07 15:57:05;;;;;;;24.00;10.90;;;;;;;;;;6299241;28;20052;-59
2022/09/07 16:00:07;;;;;;;20.80;10.93;;;;;;;;;;6297016;28;21630;-59
2022/09/07 16:03:08;;;;;;;19.63;11.35;;;;;;;;;;6301298;28;20138;-57
2022/09/07 16:06:11;;;;;;;20.40;10.82;;;;;;;;;;6298814;28;20719;-56
2022/09/07 16:09:12;;;;;;;28.33;11.70;;;;;;;;;;6296723;28;20773;-58
2022/09/07 16:12:12;;;;;;;17.27;10.40;;;;;;;;;;6298345;28;20060;-58
2022/09/07 16:15:13;;;;;;;18.50;11.33;;;;;;;;;;6297448;28;20487;-58
2022/09/07 16:18:15;;;;;;;20.17;11.90;;;;;;;;;;6302882;28;20060;-61
2022/09/07 16:21:17;;;;;;;29.35;11.70;;;;;;;;;;6302121;28;20052;-58
2022/09/07 16:24:18;;;;;;;22.02;11.95;;;;;;;;;;6297060;28;20127;-59
2022/09/07 16:27:19;;;;;;;21.83;11.87;;;;;;;;;;6294977;28;20048;-60
2022/09/07 16:30:20;;;;;;;23.17;12.13;;;;;;;;;;6301884;28;20087;-59
2022/09/07 16:33:20;;;;;;;21.50;12.90;;;;;;;;;;6299049;28;20044;-58
2022/09/07 16:36:24;;;;;;;25.67;12.80;;;;;;;;;;6299201;28;20048;-58
2022/09/07 16:39:25;;;;;;;25.58;12.60;;;;;;;;;;6298868;28;20063;-58
2022/09/07 16:42:26;;;;;;;;;;;;;;;;;;6299316;28;20117;-59
2022/09/07 16:45:27;;;;;;;21.52;12.68;;;;;;;;;;6296249;28;19941;-59
2022/09/07 16:48:29;;;;;;;28.57;13.90;;;;;;;;;;6298105;28;20637;-60
2022/09/07 16:51:29;;;;;;;39.63;18.40;;;;;;;;;;6301371;28;20056;-60
2022/09/07 16:54:30;;;;;;;44.80;20.20;;;;;;;;;;6296261;28;20135;-70
2022/09/07 16:57:31;;;;;;;37.30;19.00;;;;;;;;;;6297772;28;20566;-59
2022/09/07 17:00:31;;;;;;;43.73;18.60;;;;;;;;;;6301505;28;20056;-60
2022/09/07 17:03:33;;;;;;;42.10;18.20;;;;;;;;;;6296026;28;21494;-60
2022/09/07 17:06:33;;;;;;;35.33;18.63;;;;;;;;;;6296812;28;20062;-60
2022/09/07 17:09:34;;;;;;;36.22;18.75;;;;;;;;;;6295451;28;20056;-60
2022/09/07 17:12:36;;;;;;;34.90;18.97;;;;;;;;;;6297742;28;20142;-60
2022/09/07 17:15:37;;;;;;;33.00;17.92;;;;;;;;;;6293280;28;20104;-60
2022/09/07 17:18:39;;;;;;;29.53;14.70;;;;;;;;;;6298592;28;20052;-59
2022/09/07 17:21:40;;;;;;;24.63;14.77;;;;;;;;;;6303436;28;20529;-60
2022/09/07 17:24:41;;;;;;;31.48;15.18;;;;;;;;;;6294222;28;20064;-60
2022/09/07 17:27:43;;;;;;;27.57;13.23;;;;;;;;;;6297672;28;20110;-60
2022/09/07 17:30:44;;;;;;;27.23;15.02;;;;;;;;;;6299795;28;20052;-59
2022/09/07 17:33:47;;;;;;;28.93;15.17;;;;;;;;;;6300482;28;20051;-59
2022/09/07 17:36:48;;;;;;;27.75;14.15;;;;;;;;;;6293463;28;20040;-59
2022/09/07 17:39:48;;;;;;;27.55;14.13;;;;;;;;;;6293546;28;20117;-59
2022/09/07 17:42:49;;;;;;;26.30;14.43;;;;;;;;;;6296478;28;20052;-59
2022/09/07 17:45:50;;;;;;;31.50;18.03;;;;;;;;;;6294846;28;20139;-58
2022/09/07 17:48:55;;;;;;;36.65;17.48;;;;;;;;;;6295855;28;20044;-57
2022/09/07 17:51:57;;;;;;;38.17;18.80;;;;;;;;;;6297017;28;20056;-57
2022/09/07 17:55:00;;;;;;;;;;;;;;;;;;6295936;28;20102;-57
2022/09/07 17:58:01;;;;;;;36.40;17.75;;;;;;;;;;6295198;28;19923;-57
2022/09/07 18:01:08;;;;;;;30.88;16.40;;;;;;;;;;6293109;28;20052;-58
2022/09/07 18:04:10;;;;;;;41.20;18.60;;;;;;;;;;6292050;28;20048;-57
2022/09/07 18:07:10;;;;;;;34.83;17.38;;;;;;;;;;6292684;28;20094;-57
2022/09/07 18:10:11;;;;;;;32.13;17.20;;;;;;;;;;6294983;28;20052;-58
2022/09/07 18:13:12;;;;;;;35.27;17.60;;;;;;;;;;6297429;28;20147;-57